Effie, Minnesota
Current Conditions -  °F | °C
As of 2:53 PM on Friday 19 Dec 2014 (Local Time) from KFOZ Reporting Station
Overcast Overcast  
Wind Chill: 19°   Ceiling: 1100
Heat Index: 25°   Visibility: 7mi
Dew Point: 21°   Wind: 5mph
Humidity: 86%   Direction: 140°SE
Pressure: 30.11"   Gusts: NA
Location:  47.84°N, 93.64°W
Report Text: KFOZ 192053Z AUTO 14004KT 7SM OVC011 M04/M06 A3011 RMK AO2
Loading
Personal Weather Stations






























Interactive Weather Map New forecast layout! Learn more

10-Day Weather Forecast

Advertisements
Track Severe Weather on mobile